createdAt,value
2019-03-27T00:02:20.051Z,83.59
2019-03-27T00:04:50.656Z,82.91
2019-03-27T00:07:21.249Z,83.40
2019-03-27T00:09:51.936Z,83.08
2019-03-27T00:12:22.477Z,84.08
2019-03-27T00:14:53.090Z,84.96
2019-03-27T00:17:23.693Z,84.30
2019-03-27T00:19:54.323Z,83.75
2019-03-27T00:22:25.199Z,81.27
2019-03-27T00:24:55.815Z,80.97
2019-03-27T00:27:26.413Z,78.98
2019-03-27T00:29:57.016Z,82.54
2019-03-27T00:32:27.652Z,81.30
2019-03-27T00:34:58.501Z,80.36
2019-03-27T00:37:29.090Z,79.42
2019-03-27T00:39:59.705Z,77.93
2019-03-27T00:42:30.303Z,77.22
2019-03-27T00:45:00.981Z,76.60
2019-03-27T00:47:31.668Z,77.15
2019-03-27T00:50:03.496Z,76.33
2019-03-27T00:52:34.096Z,76.04
2019-03-27T00:55:06.634Z,81.23
2019-03-27T00:57:37.191Z,78.47
2019-03-27T01:00:11.367Z,81.43
2019-03-27T01:02:41.954Z,80.96
2019-03-27T01:05:12.623Z,80.57
2019-03-27T01:07:44.176Z,79.94
2019-03-27T01:10:14.780Z,80.17
2019-03-27T01:12:45.434Z,82.27
2019-03-27T01:15:16.033Z,80.75
2019-03-27T01:17:46.620Z,81.46
2019-03-27T01:20:17.260Z,82.13
2019-03-27T01:22:48.820Z,81.78
2019-03-27T01:25:19.416Z,79.34
2019-03-27T01:27:51.303Z,78.51
2019-03-27T01:30:21.946Z,77.41
2019-03-27T01:32:52.786Z,80.06
2019-03-27T01:35:23.419Z,79.38
2019-03-27T01:37:54.075Z,79.10
2019-03-27T01:40:24.676Z,80.93
2019-03-27T01:42:55.273Z,81.12
2019-03-27T01:45:25.899Z,81.27
2019-03-27T01:47:56.534Z,81.83
2019-03-27T01:50:27.162Z,81.79
2019-03-27T01:52:57.819Z,80.11
2019-03-27T01:55:28.433Z,80.83
2019-03-27T01:57:58.995Z,80.95
2019-03-27T02:00:29.638Z,81.22
2019-03-27T02:03:00.231Z,82.46
2019-03-27T02:05:30.879Z,81.54
2019-03-27T02:08:01.451Z,82.25
2019-03-27T02:10:32.132Z,81.63
2019-03-27T02:13:03.950Z,81.93
2019-03-27T02:15:34.564Z,79.79
2019-03-27T02:18:05.138Z,78.98
2019-03-27T02:20:35.797Z,77.87
2019-03-27T02:23:06.385Z,77.16
2019-03-27T02:25:37.360Z,79.48
2019-03-27T02:28:07.981Z,79.75
2019-03-27T02:30:40.017Z,79.95
2019-03-27T02:33:10.618Z,82.32
2019-03-27T02:35:41.241Z,84.27
2019-03-27T02:38:11.841Z,83.35
2019-03-27T02:40:42.448Z,82.57
2019-03-27T02:43:13.036Z,81.69
2019-03-27T02:45:43.698Z,80.23
2019-03-27T02:48:14.554Z,80.21
2019-03-27T02:50:45.195Z,81.44
2019-03-27T02:53:16.326Z,79.83
2019-03-27T02:55:46.912Z,81.20
2019-03-27T02:58:17.473Z,81.45
2019-03-27T03:00:48.082Z,81.22
2019-03-27T03:03:18.674Z,79.18
2019-03-27T03:05:49.376Z,81.55
2019-03-27T03:08:19.948Z,81.00
2019-03-27T03:10:50.581Z,81.58
2019-03-27T03:13:21.681Z,81.42
2019-03-27T03:15:53.004Z,79.32
2019-03-27T03:18:23.588Z,79.83
2019-03-27T03:20:54.457Z,79.92
2019-03-27T03:23:25.331Z,79.33
2019-03-27T03:25:55.965Z,80.12
2019-03-27T03:28:26.551Z,78.91
2019-03-27T03:30:57.173Z,78.03
2019-03-27T03:33:29.505Z,77.46
2019-03-27T03:36:00.400Z,77.07
2019-03-27T03:38:30.987Z,76.59
2019-03-27T03:41:01.884Z,79.88
2019-03-27T03:43:32.753Z,81.31
2019-03-27T03:46:03.590Z,80.52
2019-03-27T03:48:34.209Z,79.36
2019-03-27T03:51:05.525Z,80.49
2019-03-27T03:53:36.317Z,79.92
2019-03-27T03:56:08.217Z,79.46
2019-03-27T03:58:40.683Z,79.11
2019-03-27T04:01:11.713Z,78.64
2019-03-27T04:03:44.835Z,79.57
2019-03-27T04:06:15.466Z,79.58
2019-03-27T04:08:46.431Z,78.67
2019-03-27T04:11:17.000Z,80.10
2019-03-27T04:13:47.669Z,81.87
2019-03-27T04:16:18.282Z,81.85
2019-03-27T04:18:48.928Z,80.70
2019-03-27T04:21:19.524Z,78.99
2019-03-27T04:23:50.148Z,79.22
2019-03-27T04:26:20.701Z,80.07
2019-03-27T04:28:51.272Z,79.27
2019-03-27T04:31:21.906Z,81.26
2019-03-27T04:33:52.491Z,83.25
2019-03-27T04:36:23.353Z,81.46
2019-03-27T04:38:54.255Z,80.43
2019-03-27T04:41:25.198Z,78.71
2019-03-27T04:43:55.789Z,79.25
2019-03-27T04:46:26.406Z,77.44
2019-03-27T04:48:57.002Z,78.07
2019-03-27T04:51:27.685Z,77.12
2019-03-27T04:53:58.287Z,76.63
2019-03-27T04:56:29.016Z,78.75
2019-03-27T04:58:59.771Z,80.83
2019-03-27T05:01:30.752Z,80.61
2019-03-27T05:04:02.161Z,81.94
2019-03-27T05:06:33.067Z,81.34
2019-03-27T05:09:04.926Z,80.87
2019-03-27T05:11:36.283Z,80.82
2019-03-27T05:14:07.224Z,79.88
2019-03-27T05:16:37.865Z,80.43
2019-03-27T05:19:08.727Z,79.93
2019-03-27T05:21:39.949Z,79.31
2019-03-27T05:24:10.535Z,78.28
2019-03-27T05:26:41.176Z,78.09
2019-03-27T05:29:12.735Z,77.11
2019-03-27T05:31:43.589Z,77.44
2019-03-27T05:34:14.175Z,79.61
2019-03-27T05:36:44.839Z,77.31
2019-03-27T05:39:16.379Z,80.18
2019-03-27T05:41:47.118Z,80.52
2019-03-27T05:44:17.712Z,78.20
2019-03-27T05:46:48.336Z,78.03
2019-03-27T05:49:19.309Z,77.54
2019-03-27T05:51:50.686Z,77.05
2019-03-27T05:54:21.263Z,78.45
2019-03-27T05:56:51.871Z,78.96
2019-03-27T05:59:22.450Z,79.32
2019-03-27T06:01:53.308Z,78.87
2019-03-27T06:04:24.141Z,76.54
2019-03-27T06:06:54.747Z,76.03
2019-03-27T06:09:25.347Z,75.23
2019-03-27T06:11:56.217Z,74.92
2019-03-27T06:14:27.201Z,74.15
2019-03-27T06:16:58.096Z,73.33
2019-03-27T06:19:28.679Z,74.54
2019-03-27T06:21:59.279Z,74.11
2019-03-27T06:24:29.862Z,72.65
2019-03-27T06:27:00.451Z,72.01
2019-03-27T06:29:31.059Z,70.87
2019-03-27T06:32:01.704Z,71.39
2019-03-27T06:34:32.368Z,73.16
2019-03-27T06:37:03.004Z,71.72
2019-03-27T06:39:33.952Z,69.71
2019-03-27T06:42:04.571Z,71.68
2019-03-27T06:44:35.790Z,72.47
2019-03-27T06:47:06.435Z,70.98
2019-03-27T06:49:37.006Z,70.72
2019-03-27T06:52:07.615Z,71.95
2019-03-27T06:54:38.195Z,69.78
2019-03-27T06:57:08.786Z,68.89
2019-03-27T06:59:39.389Z,71.10
2019-03-27T07:02:09.985Z,68.99
2019-03-27T07:04:41.777Z,66.74
2019-03-27T07:07:12.386Z,69.96
2019-03-27T07:09:42.957Z,69.10
2019-03-27T07:12:21.032Z,70.39
2019-03-27T07:14:46.633Z,68.71
2019-03-27T07:17:17.247Z,71.94
2019-03-27T07:19:47.881Z,69.30
2019-03-27T07:22:18.501Z,67.87
2019-03-27T07:24:49.069Z,66.08
2019-03-27T07:27:19.705Z,66.16
2019-03-27T07:29:50.293Z,67.39
2019-03-27T07:32:21.224Z,58.89
2019-03-27T07:34:51.817Z,55.90
2019-03-27T07:37:23.388Z,57.99
2019-03-27T07:39:53.968Z,60.93
2019-03-27T07:42:24.589Z,56.89
2019-03-27T07:44:55.153Z,60.10
2019-03-27T07:47:26.308Z,60.93
2019-03-27T07:49:56.970Z,61.05
2019-03-27T07:52:27.563Z,58.38
2019-03-27T07:54:58.156Z,54.37
2019-03-27T07:57:28.793Z,60.63
2019-03-27T07:59:59.374Z,57.35
2019-03-27T08:02:29.995Z,57.59
2019-03-27T08:05:00.826Z,53.80
2019-03-27T08:07:31.437Z,51.15
2019-03-27T08:10:02.045Z,53.88
2019-03-27T08:12:33.005Z,56.40
2019-03-27T08:15:03.656Z,57.15
2019-03-27T08:17:34.519Z,56.00
2019-03-27T08:20:05.828Z,52.09
2019-03-27T08:22:36.441Z,54.02
2019-03-27T08:25:09.315Z,56.34
2019-03-27T08:27:40.223Z,59.09
2019-03-27T08:30:12.635Z,53.16
2019-03-27T08:32:44.193Z,53.49
2019-03-27T08:35:15.135Z,57.91
2019-03-27T08:37:45.818Z,59.16
2019-03-27T08:40:16.490Z,61.76
2019-03-27T08:42:47.075Z,63.16
2019-03-27T08:45:19.154Z,61.36
2019-03-27T08:47:49.788Z,63.59
2019-03-27T08:50:20.691Z,65.11
2019-03-27T08:52:51.646Z,64.13
2019-03-27T08:55:22.503Z,61.96
2019-03-27T08:57:53.114Z,61.47
2019-03-27T09:00:48.077Z,63.46
2019-03-27T09:03:19.115Z,63.09
2019-03-27T09:05:49.884Z,61.61
2019-03-27T09:08:20.620Z,56.58
2019-03-27T09:10:51.448Z,55.42
2019-03-27T09:13:22.040Z,56.79
2019-03-27T09:15:52.612Z,58.25
2019-03-27T09:18:23.574Z,52.88
2019-03-27T09:20:54.173Z,56.83
2019-03-27T09:23:24.807Z,53.83
2019-03-27T09:25:55.432Z,51.31
2019-03-27T09:28:26.999Z,57.49
2019-03-27T09:30:57.576Z,53.72
2019-03-27T09:33:28.217Z,56.31
2019-03-27T09:35:58.917Z,53.51
2019-03-27T09:38:29.621Z,52.37
2019-03-27T09:41:00.570Z,50.82
2019-03-27T09:43:31.194Z,51.75
2019-03-27T09:46:01.769Z,50.33
2019-03-27T09:48:32.465Z,52.36
2019-03-27T09:51:03.097Z,48.94
2019-03-27T09:53:33.680Z,48.32
2019-03-27T09:56:18.095Z,45.48
2019-03-27T09:58:36.574Z,44.51
2019-03-27T10:01:07.719Z,41.62
2019-03-27T10:03:38.760Z,41.23
2019-03-27T10:06:09.431Z,39.29
2019-03-27T10:08:40.312Z,37.49
2019-03-27T10:11:10.896Z,38.94
2019-03-27T10:13:41.522Z,40.63
2019-03-27T10:16:12.103Z,41.56
2019-03-27T10:18:43.704Z,46.84
2019-03-27T10:21:15.481Z,49.06
2019-03-27T10:23:46.091Z,46.07
2019-03-27T10:26:16.678Z,44.18
2019-03-27T10:28:47.323Z,46.83
2019-03-27T10:31:17.908Z,49.70
2019-03-27T10:33:48.501Z,50.54
2019-03-27T10:36:19.165Z,45.93
2019-03-27T10:38:49.932Z,45.80
2019-03-27T10:41:20.828Z,46.04
2019-03-27T10:43:52.411Z,46.47
2019-03-27T10:46:23.008Z,48.87
2019-03-27T10:48:54.780Z,52.27
2019-03-27T10:51:25.688Z,50.48
2019-03-27T10:53:56.698Z,47.39
2019-03-27T10:56:27.550Z,45.38
2019-03-27T10:58:58.505Z,44.35
2019-03-27T11:01:29.658Z,45.04
2019-03-27T11:04:00.512Z,45.76
2019-03-27T11:06:31.199Z,43.35
2019-03-27T11:09:01.822Z,42.57
2019-03-27T11:11:34.031Z,44.25
2019-03-27T11:14:04.641Z,45.24
2019-03-27T11:16:35.208Z,48.71
2019-03-27T11:19:06.120Z,52.06
2019-03-27T11:21:36.718Z,52.58
2019-03-27T11:24:07.333Z,52.78
2019-03-27T11:26:38.249Z,54.73
2019-03-27T11:29:08.839Z,55.44
2019-03-27T11:31:39.407Z,56.74
2019-03-27T11:34:10.278Z,52.58
2019-03-27T11:36:40.844Z,50.24
2019-03-27T11:39:11.636Z,51.32
2019-03-27T11:41:42.249Z,52.58
2019-03-27T11:44:12.936Z,48.34
2019-03-27T11:46:43.464Z,49.32
2019-03-27T11:49:14.345Z,45.33
2019-03-27T11:51:45.472Z,44.87
2019-03-27T11:54:16.368Z,44.74
2019-03-27T11:56:46.945Z,45.61
2019-03-27T11:59:17.549Z,51.25
2019-03-27T12:01:48.140Z,47.72
2019-03-27T12:04:18.743Z,46.20
2019-03-27T12:06:49.319Z,48.20
2019-03-27T12:09:19.969Z,46.78
2019-03-27T12:11:50.519Z,48.89
2019-03-27T12:14:21.171Z,51.22
2019-03-27T12:16:51.761Z,52.64
2019-03-27T12:19:22.388Z,49.44
2019-03-27T12:21:54.800Z,49.88
2019-03-27T12:24:25.334Z,48.97
2019-03-27T12:26:55.924Z,48.25
2019-03-27T12:29:26.783Z,50.03
2019-03-27T12:31:57.494Z,49.90
2019-03-27T12:34:28.125Z,47.63
2019-03-27T12:36:58.738Z,48.02
2019-03-27T12:39:29.396Z,45.89
2019-03-27T12:42:00.262Z,47.45
2019-03-27T12:44:30.873Z,50.44
2019-03-27T12:47:01.495Z,52.09
2019-03-27T12:49:32.087Z,50.53
2019-03-27T12:52:05.384Z,49.27
2019-03-27T12:54:34.982Z,50.74
2019-03-27T12:57:05.628Z,51.29
2019-03-27T12:59:36.476Z,50.06
2019-03-27T13:02:08.075Z,49.40
2019-03-27T13:04:38.911Z,47.78
2019-03-27T13:07:09.759Z,47.45
2019-03-27T13:09:40.396Z,47.43
2019-03-27T13:12:11.072Z,46.59
2019-03-27T13:14:41.689Z,44.88
2019-03-27T13:17:12.272Z,43.79
2019-03-27T13:19:42.907Z,45.10
2019-03-27T13:22:13.485Z,45.85
2019-03-27T13:24:44.085Z,45.55
2019-03-27T13:27:14.714Z,43.86
2019-03-27T13:29:45.324Z,44.47
2019-03-27T13:32:16.216Z,44.26
2019-03-27T13:34:46.830Z,44.21
2019-03-27T13:37:17.415Z,44.33
2019-03-27T13:39:48.076Z,43.47
2019-03-27T13:42:18.664Z,42.21
2019-03-27T13:44:49.288Z,44.89
2019-03-27T13:47:19.882Z,46.61
2019-03-27T13:49:50.831Z,44.62
2019-03-27T13:52:21.411Z,48.69
2019-03-27T13:54:52.032Z,46.80
2019-03-27T13:57:22.624Z,43.34
2019-03-27T13:59:53.228Z,42.39
2019-03-27T14:02:24.064Z,43.52
2019-03-27T14:04:54.655Z,44.35
2019-03-27T14:07:25.272Z,45.52
2019-03-27T14:09:55.888Z,45.12
2019-03-27T14:12:26.478Z,44.33
2019-03-27T14:14:57.092Z,45.98
2019-03-27T14:17:27.677Z,48.58
2019-03-27T14:19:58.382Z,47.36
2019-03-27T14:22:28.960Z,46.81
2019-03-27T14:24:59.586Z,48.59
2019-03-27T14:27:30.423Z,46.27
2019-03-27T14:30:01.048Z,50.74
2019-03-27T14:32:31.727Z,49.68
2019-03-27T14:35:02.325Z,46.53
2019-03-27T14:37:33.387Z,48.07
2019-03-27T14:40:04.541Z,47.92
2019-03-27T14:42:35.387Z,45.57
2019-03-27T14:45:08.735Z,46.38
2019-03-27T14:47:39.317Z,46.12
2019-03-27T14:50:10.573Z,46.69
2019-03-27T14:52:41.225Z,44.79
2019-03-27T14:55:11.967Z,45.50
2019-03-27T14:57:42.806Z,46.33
2019-03-27T15:00:13.782Z,45.55
2019-03-27T15:02:44.659Z,47.04
2019-03-27T15:05:15.942Z,46.61
2019-03-27T15:07:46.628Z,45.30
2019-03-27T15:10:27.205Z,45.27
2019-03-27T15:13:04.488Z,46.19
2019-03-27T15:15:35.155Z,47.37
2019-03-27T15:18:05.849Z,47.61
2019-03-27T15:20:38.146Z,47.76
2019-03-27T15:23:09.147Z,46.35
2019-03-27T15:25:41.034Z,46.99
2019-03-27T15:28:11.924Z,46.82
2019-03-27T15:30:42.508Z,45.61
2019-03-27T15:33:13.355Z,46.70
2019-03-27T15:35:44.722Z,47.03
2019-03-27T15:38:15.335Z,46.80
2019-03-27T15:40:47.573Z,45.98
2019-03-27T15:43:18.219Z,47.03
2019-03-27T15:45:48.845Z,46.86
2019-03-27T15:48:19.435Z,48.35
2019-03-27T15:50:57.106Z,49.83
2019-03-27T15:53:22.706Z,47.32
2019-03-27T15:55:53.332Z,48.61
2019-03-27T15:58:23.916Z,46.34
2019-03-27T16:00:54.516Z,48.94
2019-03-27T16:03:25.133Z,46.25
2019-03-27T16:05:55.773Z,48.52
2019-03-27T16:08:26.662Z,49.87
2019-03-27T16:10:57.498Z,49.66
2019-03-27T16:13:28.103Z,47.75
2019-03-27T16:15:58.732Z,49.23
2019-03-27T16:18:29.318Z,48.65
2019-03-27T16:20:59.910Z,50.84
2019-03-27T16:23:32.336Z,52.70
2019-03-27T16:26:03.095Z,51.46
2019-03-27T16:28:33.704Z,55.18
2019-03-27T16:31:04.320Z,51.33
2019-03-27T16:33:35.598Z,49.91
2019-03-27T16:36:06.202Z,50.04
2019-03-27T16:38:37.745Z,56.47
2019-03-27T16:41:08.390Z,54.74
2019-03-27T16:43:38.979Z,53.77
2019-03-27T16:46:09.575Z,52.42
2019-03-27T16:48:40.172Z,51.33
2019-03-27T16:51:11.046Z,55.59
2019-03-27T16:53:41.640Z,53.53
2019-03-27T16:56:12.268Z,58.11
2019-03-27T16:58:42.863Z,57.46
2019-03-27T17:01:13.558Z,57.59
2019-03-27T17:03:44.135Z,56.73
2019-03-27T17:06:15.715Z,56.90
2019-03-27T17:08:47.160Z,55.80
2019-03-27T17:11:17.784Z,58.36
2019-03-27T17:13:48.368Z,57.01
2019-03-27T17:16:18.964Z,58.51
2019-03-27T17:18:50.526Z,58.00
2019-03-27T17:21:21.955Z,55.03
2019-03-27T17:23:52.592Z,59.46
2019-03-27T17:26:23.648Z,60.39
2019-03-27T17:28:55.515Z,60.48
2019-03-27T17:31:26.718Z,62.41
2019-03-27T17:33:57.299Z,61.26
2019-03-27T17:36:28.215Z,60.90
2019-03-27T17:38:58.802Z,60.87
2019-03-27T17:41:30.379Z,61.16
2019-03-27T17:44:00.998Z,61.78
2019-03-27T17:46:31.716Z,62.61
2019-03-27T17:49:02.326Z,62.66
2019-03-27T17:51:33.016Z,63.01
2019-03-27T17:54:03.582Z,63.48
2019-03-27T17:56:34.586Z,63.78
2019-03-27T17:59:05.174Z,64.17
2019-03-27T18:01:36.130Z,64.01
2019-03-27T18:04:06.711Z,64.47
2019-03-27T18:06:38.691Z,65.02
2019-03-27T18:09:09.799Z,65.41
2019-03-27T18:11:40.445Z,66.23
2019-03-27T18:14:11.387Z,66.58
2019-03-27T18:16:42.046Z,67.01
2019-03-27T18:19:12.596Z,67.42
2019-03-27T18:21:43.222Z,67.43
2019-03-27T18:24:13.815Z,67.95
2019-03-27T18:26:44.683Z,68.67
2019-03-27T18:29:15.510Z,68.06
2019-03-27T18:31:46.115Z,68.21
2019-03-27T18:34:16.951Z,68.03
2019-03-27T18:36:48.141Z,68.21
2019-03-27T18:39:18.742Z,68.25
2019-03-27T18:41:49.858Z,68.33
2019-03-27T18:44:20.698Z,68.05
2019-03-27T18:46:51.571Z,67.81
2019-03-27T18:49:22.179Z,67.41
2019-03-27T18:51:53.156Z,67.14
2019-03-27T18:54:23.767Z,66.92
2019-03-27T18:56:54.400Z,66.23
2019-03-27T18:59:25.016Z,66.45
2019-03-27T19:01:55.883Z,66.57
2019-03-27T19:04:26.528Z,66.35
2019-03-27T19:06:58.815Z,66.62
2019-03-27T19:09:29.521Z,66.84
2019-03-27T19:12:00.135Z,67.17
2019-03-27T19:14:30.729Z,66.39
2019-03-27T19:17:01.334Z,65.58
2019-03-27T19:19:31.919Z,66.38
2019-03-27T19:22:02.526Z,67.99
2019-03-27T19:24:33.136Z,68.19
2019-03-27T19:27:03.767Z,66.65
2019-03-27T19:29:34.379Z,69.49
2019-03-27T19:32:05.007Z,67.02
2019-03-27T19:34:35.599Z,66.36
2019-03-27T19:37:06.207Z,66.46
2019-03-27T19:39:37.776Z,68.44
2019-03-27T19:42:08.409Z,66.37
2019-03-27T19:44:39.296Z,65.26
2019-03-27T19:47:09.937Z,66.19
2019-03-27T19:49:40.535Z,68.46
2019-03-27T19:52:11.153Z,69.32
2019-03-27T19:54:41.728Z,69.76
2019-03-27T19:57:12.387Z,69.25
2019-03-27T19:59:42.955Z,68.18
2019-03-27T20:02:13.569Z,67.65
2019-03-27T20:04:44.163Z,67.91
2019-03-27T20:07:14.791Z,69.06
2019-03-27T20:09:45.405Z,69.23
2019-03-27T20:12:16.042Z,68.45
2019-03-27T20:14:47.011Z,67.52
2019-03-27T20:17:17.608Z,68.17
2019-03-27T20:19:48.298Z,69.57
2019-03-27T20:22:18.920Z,69.72
2019-03-27T20:24:49.856Z,69.88
2019-03-27T20:27:20.490Z,69.18
2019-03-27T20:29:51.294Z,68.43
2019-03-27T20:32:22.168Z,67.99
2019-03-27T20:34:53.200Z,68.50
2019-03-27T20:37:23.828Z,68.36
2019-03-27T20:39:54.516Z,68.47
2019-03-27T20:42:25.484Z,68.74
2019-03-27T20:44:56.145Z,69.17
2019-03-27T20:47:27.070Z,67.99
2019-03-27T20:49:57.943Z,68.08
2019-03-27T20:52:28.618Z,69.37
2019-03-27T20:54:59.280Z,68.42
2019-03-27T20:57:29.907Z,67.80
2019-03-27T21:00:00.836Z,66.69
2019-03-27T21:02:33.295Z,66.44
2019-03-27T21:05:04.090Z,67.39
2019-03-27T21:07:35.963Z,67.33
2019-03-27T21:10:07.613Z,69.76
2019-03-27T21:12:38.249Z,69.35
2019-03-27T21:15:09.275Z,69.59
2019-03-27T21:17:40.206Z,69.02
2019-03-27T21:20:11.028Z,69.25
2019-03-27T21:22:41.638Z,69.55
2019-03-27T21:25:12.520Z,69.50
2019-03-27T21:27:43.503Z,68.18
2019-03-27T21:30:15.188Z,68.77
2019-03-27T21:32:46.433Z,68.47
2019-03-27T21:35:17.165Z,67.58
2019-03-27T21:37:48.010Z,69.18
2019-03-27T21:40:18.710Z,70.20
2019-03-27T21:42:49.326Z,71.36
2019-03-27T21:45:20.497Z,70.98
2019-03-27T21:47:51.937Z,69.75
2019-03-27T21:50:22.577Z,68.20
2019-03-27T21:53:00.470Z,68.50
2019-03-27T21:55:25.703Z,67.78
2019-03-27T21:57:56.941Z,68.14
2019-03-27T22:00:37.545Z,68.64
2019-03-27T22:03:08.473Z,68.59
2019-03-27T22:05:39.089Z,68.74
2019-03-27T22:08:09.708Z,69.43
2019-03-27T22:10:40.404Z,69.37
2019-03-27T22:13:11.019Z,69.94
2019-03-27T22:15:41.934Z,70.77
2019-03-27T22:18:12.557Z,70.22
2019-03-27T22:20:43.149Z,70.67
2019-03-27T22:23:13.767Z,70.66
2019-03-27T22:25:44.415Z,70.05
2019-03-27T22:28:15.276Z,69.57
2019-03-27T22:30:45.888Z,71.00
2019-03-27T22:33:16.489Z,70.58
2019-03-27T22:35:47.077Z,70.42
2019-03-27T22:38:17.718Z,70.80
2019-03-27T22:40:48.302Z,71.40
2019-03-27T22:43:19.185Z,70.32
2019-03-27T22:45:49.805Z,70.15
2019-03-27T22:48:20.454Z,69.29
2019-03-27T22:50:51.308Z,68.99
2019-03-27T22:53:23.199Z,69.11
2019-03-27T22:55:53.797Z,69.16
2019-03-27T22:58:24.781Z,69.79
2019-03-27T23:00:56.015Z,69.99
2019-03-27T23:03:27.369Z,71.77
2019-03-27T23:05:57.949Z,70.70
2019-03-27T23:08:28.567Z,70.62
2019-03-27T23:10:59.421Z,69.00
2019-03-27T23:13:30.068Z,66.48
2019-03-27T23:16:00.767Z,69.26
2019-03-27T23:18:31.394Z,69.20
2019-03-27T23:21:01.992Z,69.43
2019-03-27T23:23:32.595Z,69.16
2019-03-27T23:26:03.766Z,69.48
2019-03-27T23:28:34.461Z,68.57
